Time;durP1;ratioP1;P1;durP2;ratioP2;P2;SDS_P1;SDS_P2;PMS_P1;PMS_P2;Temp;Humidity;BMP_temperature;BMP_pressure;BME280_temperature;BME280_humidity;BME280_pressure;Samples;Min_cycle;Max_cycle;Signal;HPM_P1;HPM_P2
2024/01/12 00:01:34;;;;;;;31.27;17.77;;;4.50;74.30;;;;;;5092248;28;20028;-71
2024/01/12 00:04:00;;;;;;;32.90;16.63;;;4.50;74.20;;;;;;5091294;28;20345;-71
2024/01/12 00:06:26;;;;;;;32.17;17.13;;;4.50;74.20;;;;;;5093624;28;20046;-71
2024/01/12 00:08:51;;;;;;;31.67;16.93;;;4.50;74.20;;;;;;5075318;28;20102;-71
2024/01/12 00:11:17;;;;;;;31.63;17.50;;;4.50;74.20;;;;;;5093769;28;20028;-71
2024/01/12 00:13:43;;;;;;;30.07;16.63;;;4.50;74.20;;;;;;5092500;28;20043;-71
2024/01/12 00:16:09;;;;;;;31.90;16.87;;;4.50;74.20;;;;;;5105770;28;20059;-71
2024/01/12 00:18:34;;;;;;;32.13;17.00;;;4.50;74.20;;;;;;5092130;28;20134;-71
2024/01/12 00:21:00;;;;;;;32.47;18.00;;;4.50;74.20;;;;;;5105517;28;20034;-71
2024/01/12 00:23:26;;;;;;;32.60;18.07;;;4.50;74.20;;;;;;5092902;28;20056;-71
2024/01/12 00:25:58;;;;;;;30.60;16.23;;;4.50;74.20;;;;;;5092408;28;20024;-71
2024/01/12 00:28:28;;;;;;;35.03;17.43;;;4.50;74.20;;;;;;5103303;28;20111;-71
2024/01/12 00:30:55;;;;;;;32.80;17.80;;;4.50;74.20;;;;;;5094008;28;20036;-71
2024/01/12 00:33:21;;;;;;;30.43;16.13;;;4.50;74.20;;;;;;5090714;28;20452;-71
2024/01/12 00:35:47;;;;;;;32.10;17.93;;;4.50;74.20;;;;;;5085587;28;20097;-71
2024/01/12 00:38:13;;;;;;;33.63;19.10;;;4.50;74.20;;;;;;5092006;28;20514;-71
2024/01/12 00:40:39;;;;;;;30.23;17.77;;;4.50;74.20;;;;;;5089155;28;20080;-71
2024/01/12 00:43:05;;;;;;;34.30;18.37;;;4.50;74.20;;;;;;5091302;28;20016;-71
2024/01/12 00:45:30;;;;;;;31.63;17.23;;;4.50;74.20;;;;;;5093418;28;20112;-71
2024/01/12 00:47:56;;;;;;;34.93;18.67;;;4.50;74.20;;;;;;5092951;28;20125;-71
2024/01/12 00:50:23;;;;;;;32.03;19.37;;;4.50;74.20;;;;;;5092922;28;20453;-71
2024/01/12 00:52:48;;;;;;;33.53;17.90;;;4.50;74.20;;;;;;5097924;28;20107;-71
2024/01/12 00:55:14;;;;;;;32.33;17.60;;;4.50;74.20;;;;;;5090915;28;20096;-71
2024/01/12 00:57:40;;;;;;;32.83;18.30;;;4.50;74.10;;;;;;5091260;28;20030;-71
2024/01/12 01:00:07;;;;;;;34.37;16.77;;;4.60;74.20;;;;;;5092854;28;20032;-71
2024/01/12 01:02:32;;;;;;;34.20;18.87;;;4.60;74.20;;;;;;5093687;28;20016;-71
2024/01/12 01:04:58;;;;;;;32.97;17.97;;;4.60;74.20;;;;;;5096125;28;20042;-71
2024/01/12 01:07:24;;;;;;;32.70;18.50;;;4.50;74.20;;;;;;5083487;28;20028;-71
2024/01/12 01:09:50;;;;;;;32.17;16.70;;;4.50;74.20;;;;;;5096969;28;20031;-71
2024/01/12 01:12:15;;;;;;;33.60;17.97;;;4.60;74.30;;;;;;5105252;28;20367;-71
2024/01/12 01:14:41;;;;;;;33.60;18.13;;;4.60;74.30;;;;;;5096876;28;20415;-71
2024/01/12 01:17:07;;;;;;;33.07;18.03;;;4.60;74.20;;;;;;5096890;28;20067;-71
2024/01/12 01:19:35;;;;;;;34.40;17.33;;;4.60;74.20;;;;;;5095632;28;20028;-71
2024/01/12 01:22:01;;;;;;;35.33;19.50;;;4.60;74.20;;;;;;5110305;28;20043;-71
2024/01/12 01:24:29;;;;;;;30.13;17.90;;;4.60;74.20;;;;;;5093348;28;20020;-71
2024/01/12 01:26:55;;;;;;;35.40;18.53;;;4.60;74.20;;;;;;5094573;28;20123;-71
2024/01/12 01:29:21;;;;;;;32.83;18.00;;;4.60;74.20;;;;;;5094795;28;20326;-71
2024/01/12 01:31:48;;;;;;;31.43;17.20;;;4.60;74.20;;;;;;5096270;28;20035;-71
2024/01/12 01:34:14;;;;;;;30.83;18.10;;;4.60;74.20;;;;;;5095294;28;20065;-71
2024/01/12 01:36:40;;;;;;;31.20;16.63;;;4.60;74.10;;;;;;5095203;28;20457;-71
2024/01/12 01:39:06;;;;;;;28.60;15.20;;;4.60;74.10;;;;;;5096035;28;20115;-71
2024/01/12 01:41:32;;;;;;;30.70;16.57;;;4.60;74.10;;;;;;5092084;28;20428;-71
2024/01/12 01:43:57;;;;;;;29.73;16.40;;;4.60;74.10;;;;;;5088634;28;20352;-71
2024/01/12 01:46:25;;;;;;;30.23;16.33;;;4.70;74.10;;;;;;5095423;28;20028;-71
2024/01/12 01:48:51;;;;;;;30.97;15.60;;;4.60;74.00;;;;;;5094023;28;20028;-71
2024/01/12 01:51:17;;;;;;;28.20;15.57;;;4.70;74.10;;;;;;5094020;28;20111;-71
2024/01/12 01:53:43;;;;;;;28.30;15.73;;;4.70;74.10;;;;;;5094964;28;20028;-71
2024/01/12 01:56:11;;;;;;;26.53;14.60;;;4.70;74.00;;;;;;5094979;28;20112;-71
2024/01/12 01:58:37;;;;;;;30.40;14.53;;;4.70;73.90;;;;;;5104852;27;20032;-71
2024/01/12 02:01:04;;;;;;;28.57;14.33;;;4.70;73.80;;;;;;5092838;28;20377;-71
2024/01/12 02:03:30;;;;;;;24.63;13.77;;;4.70;73.80;;;;;;5093240;28;20024;-71
2024/01/12 02:05:57;;;;;;;29.67;13.90;;;4.70;73.80;;;;;;5095111;28;20047;-71
2024/01/12 02:08:24;;;;;;;27.00;13.20;;;4.80;73.80;;;;;;5093104;28;20032;-71
2024/01/12 02:10:52;;;;;;;26.27;13.50;;;4.70;73.80;;;;;;5110071;28;20056;-71
2024/01/12 02:13:18;;;;;;;29.47;14.27;;;4.70;73.80;;;;;;5095511;28;20028;-71
2024/01/12 02:15:44;;;;;;;26.17;13.13;;;4.80;73.90;;;;;;5093977;28;20055;-71
2024/01/12 02:18:10;;;;;;;23.07;12.30;;;4.70;73.80;;;;;;5095371;28;20016;-71
2024/01/12 02:20:36;;;;;;;23.13;13.23;;;4.70;73.80;;;;;;5095448;28;20360;-71
2024/01/12 02:23:02;;;;;;;24.43;12.93;;;4.70;73.70;;;;;;5094397;28;20107;-71
2024/01/12 02:25:28;;;;;;;24.87;11.93;;;4.80;73.70;;;;;;5095418;28;20072;-71
2024/01/12 02:27:54;;;;;;;21.93;10.53;;;4.80;73.70;;;;;;5093454;28;20108;-71
2024/01/12 02:30:20;;;;;;;20.90;10.10;;;4.80;73.70;;;;;;5077010;28;20067;-71
2024/01/12 02:32:45;;;;;;;21.13;10.17;;;4.80;73.70;;;;;;5095602;28;20463;-71
2024/01/12 02:35:11;;;;;;;21.37;10.23;;;4.80;73.60;;;;;;5094052;28;20039;-71
2024/01/12 02:37:37;;;;;;;20.43;9.27;;;4.80;73.50;;;;;;5091322;28;20028;-71
2024/01/12 02:40:03;;;;;;;25.87;10.07;;;4.80;73.50;;;;;;5094297;28;20030;-71
2024/01/12 02:42:29;;;;;;;20.53;10.57;;;4.90;73.50;;;;;;5094167;28;20055;-71
2024/01/12 02:44:55;;;;;;;22.73;9.87;;;4.90;73.50;;;;;;5094830;28;20479;-71
2024/01/12 02:47:21;;;;;;;18.87;8.97;;;4.90;73.50;;;;;;5094421;28;20120;-71
2024/01/12 02:49:46;;;;;;;20.63;9.20;;;4.90;73.50;;;;;;5092075;28;20039;-71
2024/01/12 02:52:12;;;;;;;21.87;8.80;;;4.90;73.50;;;;;;5093997;28;20060;-71
2024/01/12 02:54:38;;;;;;;19.83;8.83;;;4.80;73.50;;;;;;5093959;28;20040;-71
2024/01/12 02:57:04;;;;;;;18.90;9.30;;;4.90;73.60;;;;;;5094157;28;20020;-71
2024/01/12 02:59:29;;;;;;;18.93;8.87;;;4.80;73.50;;;;;;5095500;28;20020;-71
2024/01/12 03:01:55;;;;;;;16.73;8.70;;;4.80;73.60;;;;;;5093643;28;20024;-71
2024/01/12 03:04:21;;;;;;;19.80;8.83;;;4.80;73.50;;;;;;5095303;28;20016;-71
2024/01/12 03:06:46;;;;;;;22.33;10.27;;;4.90;73.60;;;;;;5093598;28;20038;-71
2024/01/12 03:09:12;;;;;;;20.30;8.00;;;4.90;73.50;;;;;;5094796;28;20028;-71
2024/01/12 03:11:38;;;;;;;19.03;7.80;;;4.90;73.50;;;;;;5093682;28;20035;-71
2024/01/12 03:14:04;;;;;;;19.57;8.53;;;4.90;73.50;;;;;;5094549;28;20024;-71
2024/01/12 03:16:29;;;;;;;22.00;8.23;;;4.90;74.10;;;;;;5094067;28;20028;-71
2024/01/12 03:18:56;;;;;;;18.03;8.43;;;4.90;73.50;;;;;;5102251;28;20028;-71
2024/01/12 03:21:21;;;;;;;17.03;7.70;;;4.90;73.50;;;;;;5093507;28;20448;-71
2024/01/12 03:23:47;;;;;;;19.13;7.57;;;4.90;73.50;;;;;;5093366;28;20031;-71
2024/01/12 03:26:13;;;;;;;23.80;7.47;;;4.80;73.50;;;;;;5093522;28;20339;-71
2024/01/12 03:28:39;;;;;;;19.33;6.63;;;4.90;73.50;;;;;;5093673;28;20028;-71
2024/01/12 03:31:06;;;;;;;17.37;7.47;;;4.90;73.50;;;;;;5093524;28;20117;-71
2024/01/12 03:33:32;;;;;;;16.77;7.27;;;4.90;73.50;;;;;;5094528;28;20032;-71
2024/01/12 03:35:58;;;;;;;13.80;6.07;;;4.90;73.50;;;;;;5094910;28;20077;-71
2024/01/12 03:38:24;;;;;;;14.10;6.60;;;4.90;73.40;;;;;;5094762;28;20024;-71
2024/01/12 03:40:50;;;;;;;17.73;6.23;;;4.90;73.40;;;;;;5093689;28;20036;-71
2024/01/12 03:43:15;;;;;;;17.70;6.17;;;5.00;73.40;;;;;;5076403;28;20089;-71
2024/01/12 03:45:41;;;;;;;13.53;5.67;;;5.00;73.30;;;;;;5093878;28;20028;-71
2024/01/12 03:48:07;;;;;;;17.10;5.90;;;5.00;73.30;;;;;;5093682;28;20421;-71
2024/01/12 03:50:33;;;;;;;17.50;5.67;;;5.00;74.00;;;;;;5091698;28;20031;-71
2024/01/12 03:52:58;;;;;;;14.83;5.87;;;5.00;73.30;;;;;;5093245;28;20392;-71
2024/01/12 03:55:24;;;;;;;15.90;5.23;;;5.00;73.30;;;;;;5093112;28;20157;-71
2024/01/12 03:57:50;;;;;;;15.03;5.50;;;5.00;73.30;;;;;;5091640;28;20480;-71
2024/01/12 04:00:16;;;;;;;16.63;5.07;;;5.00;73.30;;;;;;5094358;28;20032;-71
2024/01/12 04:02:42;;;;;;;15.03;4.80;;;5.00;73.90;;;;;;5093312;28;20028;-71
2024/01/12 04:05:09;;;;;;;16.53;5.90;;;5.00;73.20;;;;;;5093892;28;20382;-71
2024/01/12 04:07:35;;;;;;;14.83;5.23;;;5.00;73.20;;;;;;5094254;28;20027;-71
2024/01/12 04:10:01;;;;;;;19.37;4.97;;;5.00;73.20;;;;;;5093615;28;20081;-71
2024/01/12 04:12:26;;;;;;;13.77;5.00;;;5.00;73.30;;;;;;5093318;28;20481;-71
2024/01/12 04:14:52;;;;;;;15.33;4.93;;;5.00;73.20;;;;;;5090521;28;20028;-71
2024/01/12 04:17:18;;;;;;;17.53;4.67;;;5.00;73.20;;;;;;5091011;28;20030;-71
2024/01/12 04:19:43;;;;;;;18.20;5.20;;;5.00;73.20;;;;;;5102668;28;20027;-71
2024/01/12 04:22:09;;;;;;;17.57;6.10;;;5.00;73.10;;;;;;5094285;28;20081;-71
2024/01/12 04:24:35;;;;;;;16.57;5.13;;;5.00;73.10;;;;;;5093080;28;20403;-71
2024/01/12 04:27:01;;;;;;;13.30;4.67;;;5.00;73.00;;;;;;5092898;28;20024;-71
2024/01/12 04:29:26;;;;;;;19.03;4.80;;;5.00;73.00;;;;;;5093839;28;20024;-71
2024/01/12 04:31:52;;;;;;;13.73;4.70;;;5.00;73.10;;;;;;5092294;28;20036;-71
2024/01/12 04:34:18;;;;;;;18.33;5.13;;;5.00;73.10;;;;;;5092504;28;20039;-71
2024/01/12 04:36:44;;;;;;;14.13;5.33;;;5.00;73.10;;;;;;5092957;28;20115;-71
2024/01/12 04:39:09;;;;;;;14.30;5.07;;;5.00;73.10;;;;;;5092400;28;20039;-71
2024/01/12 04:41:35;;;;;;;15.53;4.80;;;5.00;73.00;;;;;;5092947;28;20063;-71
2024/01/12 04:44:01;;;;;;;16.37;4.83;;;5.00;73.00;;;;;;5091610;28;20070;-71
2024/01/12 04:46:28;;;;;;;15.03;3.97;;;5.00;73.00;;;;;;5093479;28;20031;-71
2024/01/12 04:48:53;;;;;;;11.47;4.33;;;5.00;73.10;;;;;;5108325;28;20117;-71
2024/01/12 04:51:19;;;;;;;14.17;4.33;;;5.00;73.10;;;;;;5092754;28;20441;-71
2024/01/12 04:53:45;;;;;;;14.40;4.90;;;5.00;73.10;;;;;;5092638;28;20092;-71
2024/01/12 04:56:10;;;;;;;11.10;4.93;;;5.00;73.10;;;;;;5092301;28;20035;-71
2024/01/12 04:58:38;;;;;;;14.67;5.03;;;5.00;73.00;;;;;;5095463;28;20461;-71
2024/01/12 05:01:04;;;;;;;13.73;4.80;;;5.00;73.00;;;;;;5092585;28;20355;-71
2024/01/12 05:03:30;;;;;;;16.53;5.07;;;5.00;73.00;;;;;;5097462;28;20032;-71
2024/01/12 05:05:55;;;;;;;16.87;4.47;;;5.00;72.90;;;;;;5092691;28;20039;-71
2024/01/12 05:08:21;;;;;;;17.43;5.10;;;5.00;72.90;;;;;;5093619;28;20099;-71
2024/01/12 05:10:47;;;;;;;16.20;5.93;;;5.00;73.00;;;;;;5092202;28;20023;-71
2024/01/12 05:13:12;;;;;;;14.23;5.07;;;5.00;73.10;;;;;;5092199;28;20330;-71
2024/01/12 05:15:38;;;;;;;12.27;4.83;;;5.00;73.10;;;;;;5092961;28;20077;-71
2024/01/12 05:18:05;;;;;;;15.97;4.60;;;5.00;73.10;;;;;;5092699;28;20038;-71
2024/01/12 05:20:31;;;;;;;16.33;4.83;;;5.00;73.10;;;;;;5074410;28;20024;-71
2024/01/12 05:22:56;;;;;;;15.53;4.93;;;5.00;73.10;;;;;;5091532;28;20012;-71
2024/01/12 05:25:22;;;;;;;11.13;4.67;;;5.00;73.10;;;;;;5092785;28;20055;-71
2024/01/12 05:27:48;;;;;;;15.03;5.27;;;5.00;73.20;;;;;;5089848;28;20097;-71
2024/01/12 05:30:14;;;;;;;16.90;5.10;;;5.00;73.10;;;;;;5091299;28;20024;-71
2024/01/12 05:32:40;;;;;;;14.70;5.03;;;5.00;73.10;;;;;;5091548;28;20035;-71
2024/01/12 05:35:05;;;;;;;16.03;5.53;;;5.00;73.10;;;;;;5092864;28;20031;-71
2024/01/12 05:37:31;;;;;;;13.70;4.63;;;5.00;73.10;;;;;;5091126;28;20476;-71
2024/01/12 05:39:57;;;;;;;12.10;4.87;;;5.00;73.10;;;;;;5091497;28;20337;-71
2024/01/12 05:42:23;;;;;;;15.67;5.10;;;5.10;73.20;;;;;;5092454;28;20248;-71
2024/01/12 05:44:48;;;;;;;13.27;5.60;;;5.10;73.10;;;;;;5092284;28;20098;-71
2024/01/12 05:47:14;;;;;;;13.43;5.60;;;5.10;73.10;;;;;;5091138;28;20036;-71
2024/01/12 05:49:40;;;;;;;11.70;5.30;;;5.10;73.10;;;;;;5088875;28;20028;-71
2024/01/12 05:52:06;;;;;;;15.60;5.63;;;5.10;73.10;;;;;;5094979;28;20035;-71
2024/01/12 05:54:32;;;;;;;12.53;4.83;;;5.10;73.10;;;;;;5096144;28;20068;-70
2024/01/12 05:56:57;;;;;;;12.43;5.27;;;5.10;73.00;;;;;;5095505;28;20024;-71
2024/01/12 05:59:23;;;;;;;16.73;5.33;;;5.10;73.00;;;;;;5095898;28;20012;-71
2024/01/12 06:01:49;;;;;;;12.20;5.67;;;5.10;73.00;;;;;;5096533;28;20513;-71
2024/01/12 06:04:15;;;;;;;18.73;5.47;;;5.10;73.10;;;;;;5095572;28;20060;-71
2024/01/12 06:06:41;;;;;;;12.10;5.27;;;5.10;73.10;;;;;;5095574;28;20119;-71
2024/01/12 06:09:08;;;;;;;13.27;5.23;;;5.10;73.20;;;;;;5090459;28;21359;-71
2024/01/12 06:11:34;;;;;;;12.30;4.80;;;5.10;73.10;;;;;;5094969;28;20040;-71
2024/01/12 06:14:00;;;;;;;14.23;5.03;;;5.10;73.10;;;;;;5095477;28;20027;-71
2024/01/12 06:16:26;;;;;;;12.90;5.60;;;5.10;73.10;;;;;;5096536;28;20028;-71
2024/01/12 06:18:52;;;;;;;12.80;4.93;;;5.10;73.10;;;;;;5094520;28;20043;-72
2024/01/12 06:21:18;;;;;;;14.00;4.80;;;5.10;73.10;;;;;;5094961;28;20034;-70
2024/01/12 06:23:43;;;;;;;14.73;5.57;;;5.10;73.10;;;;;;5092102;28;20032;-72
2024/01/12 06:26:09;;;;;;;11.87;5.10;;;5.10;73.10;;;;;;5095910;28;20127;-71
2024/01/12 06:28:35;;;;;;;11.60;4.63;;;5.10;73.00;;;;;;5095696;28;20111;-71
2024/01/12 06:31:00;;;;;;;10.73;4.43;;;5.10;73.10;;;;;;5095701;28;20048;-70
2024/01/12 06:33:28;;;;;;;13.60;5.60;;;5.10;73.10;;;;;;5094712;28;20016;-70
2024/01/12 06:35:54;;;;;;;15.13;5.53;;;5.10;73.10;;;;;;5095965;28;20024;-70
2024/01/12 06:38:19;;;;;;;12.80;5.03;;;5.10;73.10;;;;;;5094991;28;20353;-70
2024/01/12 06:40:45;;;;;;;10.93;4.90;;;5.10;73.10;;;;;;5096688;28;20031;-70
2024/01/12 06:43:11;;;;;;;12.63;5.20;;;5.10;73.00;;;;;;5106491;27;20028;-70
2024/01/12 06:45:37;;;;;;;11.33;5.33;;;5.10;73.10;;;;;;5092910;28;20106;-70
2024/01/12 06:48:03;;;;;;;11.77;4.90;;;5.10;73.10;;;;;;5096901;28;20337;-71
2024/01/12 06:50:29;;;;;;;14.67;6.20;;;5.10;73.10;;;;;;5094941;28;20065;-70
2024/01/12 06:52:56;;;;;;;15.37;5.80;;;5.10;73.00;;;;;;5096323;28;20482;-70
2024/01/12 06:55:22;;;;;;;18.47;6.73;;;5.10;73.10;;;;;;5112655;28;20047;-70
2024/01/12 06:57:47;;;;;;;17.20;7.53;;;5.10;73.00;;;;;;5095429;28;20036;-70
2024/01/12 07:00:15;;;;;;;16.20;7.17;;;5.10;73.10;;;;;;5095680;28;20026;-70
2024/01/12 07:02:40;;;;;;;16.17;7.03;;;5.10;73.20;;;;;;5095391;28;20020;-70
2024/01/12 07:05:07;;;;;;;14.90;6.73;;;5.10;73.20;;;;;;5094628;28;20020;-70
2024/01/12 07:07:33;;;;;;;18.73;8.13;;;5.10;73.20;;;;;;5085408;28;20421;-70
2024/01/12 07:09:59;;;;;;;18.53;7.13;;;5.10;73.20;;;;;;5095355;28;20066;-70
2024/01/12 07:12:25;;;;;;;15.03;6.10;;;5.10;73.20;;;;;;5094803;28;20030;-70
2024/01/12 07:14:50;;;;;;;24.10;7.17;;;5.10;73.20;;;;;;5092052;28;20024;-70
2024/01/12 07:17:16;;;;;;;19.37;6.37;;;5.10;73.10;;;;;;5095961;28;20047;-70
2024/01/12 07:19:44;;;;;;;15.40;6.33;;;5.20;73.20;;;;;;5085832;28;20024;-70
2024/01/12 07:22:10;;;;;;;20.40;7.47;;;5.20;73.20;;;;;;5093446;28;20107;-70
2024/01/12 07:24:35;;;;;;;16.57;7.27;;;5.10;73.10;;;;;;5095313;28;20123;-70
2024/01/12 07:27:01;;;;;;;20.87;7.37;;;5.10;73.20;;;;;;5095746;28;20039;-70
2024/01/12 07:29:27;;;;;;;17.07;6.67;;;5.20;73.20;;;;;;5095306;28;20020;-70
2024/01/12 07:31:52;;;;;;;20.87;7.40;;;5.10;73.20;;;;;;5085474;28;20036;-69
2024/01/12 07:34:21;;;;;;;13.67;6.27;;;5.20;73.20;;;;;;5094939;28;20043;-70
2024/01/12 07:36:46;;;;;;;13.47;6.23;;;5.20;73.20;;;;;;5099798;28;20035;-71
2024/01/12 07:39:12;;;;;;;17.93;6.43;;;5.20;73.20;;;;;;5093556;28;20349;-73
2024/01/12 07:41:38;;;;;;;17.87;6.40;;;5.20;73.20;;;;;;5094283;28;20507;-72
2024/01/12 07:44:04;;;;;;;14.57;6.13;;;5.20;73.20;;;;;;5094057;28;20111;-73
2024/01/12 07:46:30;;;;;;;17.40;6.23;;;5.20;73.20;;;;;;5094537;28;20162;-71
2024/01/12 07:48:56;;;;;;;12.20;5.83;;;5.30;73.30;;;;;;5091614;28;20403;-69
2024/01/12 07:51:23;;;;;;;15.10;5.57;;;5.20;73.30;;;;;;5084472;28;20065;-70
2024/01/12 07:53:48;;;;;;;13.10;6.10;;;5.20;73.30;;;;;;5094430;28;20028;-70
2024/01/12 07:56:14;;;;;;;13.37;5.93;;;5.30;73.40;;;;;;5094340;28;20465;-72
2024/01/12 07:58:40;;;;;;;12.27;6.10;;;5.30;73.40;;;;;;5099296;28;20020;-72
2024/01/12 08:01:12;;;;;;;14.33;5.43;;;5.20;73.40;;;;;;5093053;28;20050;-72
2024/01/12 08:03:38;;;;;;;11.83;5.33;;;5.20;73.40;;;;;;5093276;28;20040;-72
2024/01/12 08:06:04;;;;;;;15.40;5.90;;;5.20;73.40;;;;;;5076587;28;20046;-71
2024/01/12 08:08:29;;;;;;;13.13;6.00;;;5.20;73.40;;;;;;5076064;28;20051;-74
2024/01/12 08:10:57;;;;;;;13.03;5.83;;;5.20;73.40;;;;;;5092330;28;20035;-71
2024/01/12 08:13:26;;;;;;;11.47;5.60;;;5.20;73.40;;;;;;5093329;28;20051;-71
2024/01/12 08:15:51;;;;;;;13.20;5.97;;;5.30;73.50;;;;;;5094043;28;20348;-72
2024/01/12 08:18:18;;;;;;;10.83;5.73;;;5.20;73.40;;;;;;5092850;28;20093;-72
2024/01/12 08:20:45;;;;;;;18.90;6.87;;;5.20;73.50;;;;;;5102537;28;20051;-71
2024/01/12 08:23:11;;;;;;;13.70;6.60;;;5.20;73.50;;;;;;5101612;28;20039;-73
2024/01/12 08:25:38;;;;;;;16.67;7.57;;;5.30;73.60;;;;;;5096164;28;20031;-75
2024/01/12 08:28:04;;;;;;;16.07;6.20;;;5.30;73.60;;;;;;5093035;28;20035;-73
2024/01/12 08:30:29;;;;;;;13.70;6.60;;;5.30;73.70;;;;;;5093512;28;20028;-72
2024/01/12 08:32:56;;;;;;;10.20;5.20;;;5.30;73.70;;;;;;5075988;28;20043;-74
2024/01/12 08:35:22;;;;;;;16.10;6.17;;;5.30;73.70;;;;;;5102191;28;20032;-74
2024/01/12 08:37:47;;;;;;;13.47;5.80;;;5.30;73.70;;;;;;5109880;28;20020;-73
2024/01/12 08:40:13;;;;;;;14.80;6.07;;;5.30;73.60;;;;;;5093951;28;20023;-73
2024/01/12 08:42:39;;;;;;;11.63;5.43;;;5.30;73.60;;;;;;5092875;28;20024;-74
2024/01/12 08:45:06;;;;;;;15.00;6.87;;;5.30;73.60;;;;;;5092652;28;20024;-73
2024/01/12 08:47:33;;;;;;;12.77;5.87;;;5.30;73.70;;;;;;5092356;28;20052;-72
2024/01/12 08:49:58;;;;;;;12.77;6.03;;;5.40;73.80;;;;;;5090293;28;20110;-71
2024/01/12 08:52:24;;;;;;;12.43;6.53;;;5.40;73.70;;;;;;5092828;28;20548;-72
2024/01/12 08:54:50;;;;;;;17.63;7.40;;;5.40;73.70;;;;;;5093339;28;20032;-72
2024/01/12 08:57:16;;;;;;;15.37;5.93;;;5.40;73.70;;;;;;5092097;28;20443;-72
2024/01/12 08:59:42;;;;;;;17.80;7.10;;;5.40;73.70;;;;;;5092740;28;20020;-73
2024/01/12 09:02:08;;;;;;;15.77;6.97;;;5.40;73.70;;;;;;5092626;28;20024;-71
2024/01/12 09:04:34;;;;;;;16.90;7.13;;;5.40;73.70;;;;;;5091897;28;20115;-72
2024/01/12 09:07:00;;;;;;;15.87;6.47;;;5.40;73.80;;;;;;5093824;28;20414;-71
2024/01/12 09:09:26;;;;;;;14.27;6.47;;;5.40;73.80;;;;;;5079900;28;20050;-71
2024/01/12 09:11:53;;;;;;;16.77;6.97;;;5.50;73.80;;;;;;5092618;28;20028;-72
2024/01/12 09:14:19;;;;;;;16.10;6.73;;;5.50;73.80;;;;;;5094706;28;20032;-71
2024/01/12 09:16:45;;;;;;;14.37;6.60;;;5.50;73.80;;;;;;5094759;28;20051;-70
2024/01/12 09:19:10;;;;;;;18.40;6.60;;;5.50;73.80;;;;;;5094662;28;20036;-71
2024/01/12 09:21:38;;;;;;;14.67;7.30;;;5.60;73.80;;;;;;5092041;28;20085;-71
2024/01/12 09:24:04;;;;;;;13.13;6.90;;;5.60;73.80;;;;;;5095097;28;20047;-71
2024/01/12 09:26:30;;;;;;;13.97;6.97;;;5.60;73.70;;;;;;5095777;28;20448;-71
2024/01/12 09:28:56;;;;;;;19.83;7.60;;;5.60;73.70;;;;;;5096746;28;20072;-70
2024/01/12 09:31:22;;;;;;;14.47;6.27;;;5.60;73.70;;;;;;5117823;27;20058;-71
2024/01/12 09:33:48;;;;;;;12.77;6.10;;;5.60;73.70;;;;;;5096654;28;20043;-72
2024/01/12 09:36:13;;;;;;;13.13;7.10;;;5.70;73.70;;;;;;5114099;27;20486;-72
2024/01/12 09:38:39;;;;;;;12.40;6.33;;;5.70;73.70;;;;;;5096867;28;20020;-71
2024/01/12 09:41:08;;;;;;;12.40;6.57;;;5.70;73.70;;;;;;5096961;28;20044;-71
2024/01/12 09:43:36;;;;;;;16.27;6.83;;;5.70;73.70;;;;;;5113783;28;20078;-71
2024/01/12 09:46:08;;;;;;;19.10;6.80;;;5.80;73.70;;;;;;5097449;28;20061;-71
2024/01/12 09:48:33;;;;;;;;;;;5.80;73.60;;;;;;5096171;28;20024;-71
2024/01/12 09:51:00;;;;;;;14.77;6.13;;;5.80;73.60;;;;;;5082763;28;19908;-71
2024/01/12 09:53:26;;;;;;;13.67;7.10;;;5.80;73.50;;;;;;5096773;28;20075;-72
2024/01/12 09:55:52;;;;;;;18.80;7.83;;;5.80;73.50;;;;;;5080914;28;20071;-72
2024/01/12 09:58:21;;;;;;;14.27;6.97;;;5.80;73.40;;;;;;5106421;28;20082;-72
2024/01/12 10:00:50;;;;;;;12.93;7.07;;;5.80;73.40;;;;;;5098526;28;20019;-71
2024/01/12 10:03:17;;;;;;;14.13;7.27;;;5.80;73.40;;;;;;5096250;28;20051;-72
2024/01/12 10:05:44;;;;;;;14.23;6.33;;;5.90;73.50;;;;;;5097217;28;20162;-71
2024/01/12 10:08:10;;;;;;;16.93;7.50;;;5.90;73.80;;;;;;5113517;27;20032;-71
2024/01/12 10:10:36;;;;;;;15.17;7.47;;;5.90;74.10;;;;;;5095540;28;20035;-71
2024/01/12 10:13:02;;;;;;;17.00;7.60;;;5.90;73.40;;;;;;5113321;28;20033;-71
2024/01/12 10:15:29;;;;;;;17.73;8.13;;;5.90;73.40;;;;;;5078887;28;20107;-71
2024/01/12 10:17:56;;;;;;;16.23;7.50;;;5.90;73.40;;;;;;5096185;28;20329;-73
2024/01/12 10:20:22;;;;;;;16.90;7.10;;;6.00;73.40;;;;;;5078898;28;20024;-73
2024/01/12 10:22:55;;;;;;;14.80;7.10;;;6.00;73.40;;;;;;5097230;28;20016;-73
2024/01/12 10:25:21;;;;;;;20.37;7.77;;;6.00;73.30;;;;;;5095908;28;20028;-73
2024/01/12 10:27:57;;;;;;;14.73;7.50;;;6.00;73.40;;;;;;5096745;28;20046;-72
2024/01/12 10:30:23;;;;;;;13.43;7.10;;;6.00;73.40;;;;;;5095324;28;20043;-72
2024/01/12 10:32:53;;;;;;;11.83;6.03;;;6.00;73.40;;;;;;5095487;28;20118;-72
2024/01/12 10:35:22;;;;;;;15.73;7.87;;;6.00;73.40;;;;;;5096930;28;20036;-72
2024/01/12 10:37:49;;;;;;;10.60;5.67;;;6.00;73.40;;;;;;5092351;28;20425;-72
2024/01/12 10:40:18;;;;;;;18.30;7.03;;;6.00;73.40;;;;;;5096630;28;20016;-74
2024/01/12 10:42:50;;;;;;;12.90;6.40;;;6.00;73.40;;;;;;5095322;28;20032;-74
2024/01/12 10:45:21;;;;;;;15.70;6.80;;;6.00;73.40;;;;;;5092096;28;20028;-74
2024/01/12 10:48:09;;;;;;;14.57;6.73;;;6.00;73.40;;;;;;5096402;28;20031;-73
2024/01/12 10:50:41;;;;;;;17.03;6.03;;;6.00;73.30;;;;;;5095876;28;20035;-73
2024/01/12 10:53:36;;;;;;;14.23;6.73;;;6.00;73.40;;;;;;5095959;28;20042;-74
2024/01/12 10:56:03;;;;;;;15.10;6.50;;;6.00;73.40;;;;;;5096582;28;20353;-73
2024/01/12 10:58:29;;;;;;;13.33;6.07;;;6.00;73.40;;;;;;5097595;28;20373;-74
2024/01/12 11:00:55;;;;;;;12.43;6.27;;;6.00;73.40;;;;;;5104924;28;20108;-73
2024/01/12 11:03:22;;;;;;;11.17;6.03;;;6.10;73.40;;;;;;5077654;28;20119;-72
2024/01/12 11:05:49;;;;;;;17.67;6.60;;;6.10;73.40;;;;;;5094328;28;20047;-73
2024/01/12 11:08:15;;;;;;;14.03;6.50;;;6.10;73.30;;;;;;5098336;28;20028;-74
2024/01/12 11:10:48;;;;;;;16.93;6.70;;;6.10;73.30;;;;;;5095097;28;20028;-72
2024/01/12 11:13:16;;;;;;;17.27;7.30;;;6.10;73.30;;;;;;5094671;28;20034;-70
2024/01/12 11:15:43;;;;;;;12.77;5.83;;;6.10;73.30;;;;;;5095257;28;20040;-74
2024/01/12 11:18:10;;;;;;;13.37;6.60;;;6.10;73.30;;;;;;5094170;28;20020;-73
2024/01/12 11:20:38;;;;;;;12.43;6.13;;;6.10;73.30;;;;;;5093893;28;20038;-73
2024/01/12 11:23:04;;;;;;;12.73;6.60;;;6.20;73.40;;;;;;5086424;28;20039;-74
2024/01/12 11:25:30;;;;;;;14.17;5.70;;;6.20;73.30;;;;;;5094951;28;20349;-73
2024/01/12 11:27:56;;;;;;;17.20;6.90;;;6.20;73.30;;;;;;5095336;28;20449;-74
2024/01/12 11:30:24;;;;;;;14.23;5.73;;;6.20;73.30;;;;;;5093957;28;20048;-73
2024/01/12 11:33:01;;;;;;;11.60;6.47;;;6.20;73.20;;;;;;5096739;28;20758;-74
2024/01/12 11:35:29;;;;;;;13.80;6.47;;;6.20;73.20;;;;;;5093047;28;20036;-74
2024/01/12 11:38:05;;;;;;;13.93;6.40;;;6.20;73.20;;;;;;5104057;28;20479;-73
2024/01/12 11:40:32;;;;;;;12.87;5.73;;;6.20;73.30;;;;;;5093803;28;20382;-74
2024/01/12 11:42:59;;;;;;;17.07;6.80;;;6.20;73.30;;;;;;5090669;28;20028;-76
2024/01/12 11:45:27;;;;;;;13.70;6.60;;;6.20;73.20;;;;;;5093314;28;20035;-75
2024/01/12 11:47:54;;;;;;;12.70;6.07;;;6.30;73.20;;;;;;5093932;28;20115;-74
2024/01/12 11:50:24;;;;;;;15.67;6.03;;;6.30;73.20;;;;;;5093723;28;20348;-75
2024/01/12 11:53:00;;;;;;;14.43;6.53;;;6.30;73.10;;;;;;5093577;28;20117;-75
2024/01/12 11:55:27;;;;;;;13.67;5.83;;;6.30;73.10;;;;;;5093825;28;20464;-75
2024/01/12 11:57:54;;;;;;;17.03;6.40;;;6.30;73.00;;;;;;5094343;28;20043;-72
2024/01/12 12:00:21;;;;;;;19.73;6.63;;;6.40;73.10;;;;;;5093443;28;20071;-75
2024/01/12 12:02:47;;;;;;;15.77;6.03;;;6.40;73.10;;;;;;5090307;28;20012;-74
2024/01/12 12:05:12;;;;;;;13.00;6.20;;;6.40;73.10;;;;;;5094101;28;20318;-74
2024/01/12 12:07:41;;;;;;;15.93;6.20;;;6.40;73.10;;;;;;5093598;28;20042;-74
2024/01/12 12:10:09;;;;;;;13.47;6.50;;;6.40;73.10;;;;;;5091282;28;20039;-73
2024/01/12 12:12:35;;;;;;;14.73;5.53;;;6.40;73.10;;;;;;5096318;28;20047;-74
2024/01/12 12:15:09;;;;;;;10.53;5.27;;;6.40;73.10;;;;;;5075392;28;20509;-71
2024/01/12 12:17:46;;;;;;;15.43;6.20;;;6.40;73.00;;;;;;5092441;28;20044;-73
2024/01/12 12:20:12;;;;;;;14.07;6.07;;;6.50;73.70;;;;;;5090503;28;20469;-73
2024/01/12 12:22:45;;;;;;;12.17;5.23;;;6.50;73.00;;;;;;5092964;28;20496;-71
2024/01/12 12:25:13;;;;;;;14.60;5.70;;;6.50;73.10;;;;;;5091768;28;20028;-75
2024/01/12 12:27:39;;;;;;;15.23;5.67;;;6.50;73.70;;;;;;5091448;28;20040;-76
2024/01/12 12:30:07;;;;;;;13.97;5.93;;;6.50;73.10;;;;;;5092270;28;20024;-73
2024/01/12 12:32:33;;;;;;;11.70;5.57;;;6.50;73.10;;;;;;5093690;28;20143;-73
2024/01/12 12:34:59;;;;;;;14.40;5.73;;;6.50;73.00;;;;;;5091503;28;20118;-72
2024/01/12 12:37:25;;;;;;;14.87;5.40;;;6.50;73.10;;;;;;5080918;28;20016;-74
2024/01/12 12:39:51;;;;;;;14.20;5.53;;;6.50;73.00;;;;;;5092389;28;20072;-74
2024/01/12 12:42:17;;;;;;;17.50;5.60;;;6.50;73.00;;;;;;5092154;28;20016;-71